createdAt,value
2018-07-06T00:00:04.410Z,14.60
2018-07-06T00:02:47.117Z,14.40
2018-07-06T00:05:28.835Z,14.40
2018-07-06T00:08:08.319Z,14.20
2018-07-06T00:10:48.978Z,14.10
2018-07-06T00:13:28.430Z,14.00
2018-07-06T00:16:08.541Z,13.80
2018-07-06T00:18:49.235Z,13.70
2018-07-06T00:21:33.174Z,13.60
2018-07-06T00:24:12.737Z,13.60
2018-07-06T00:26:53.191Z,13.70
2018-07-06T00:29:33.262Z,13.70
2018-07-06T00:32:13.249Z,13.70
2018-07-06T00:34:52.783Z,13.70
2018-07-06T00:37:32.314Z,13.70
2018-07-06T00:40:12.610Z,13.70
2018-07-06T00:42:53.304Z,13.60
2018-07-06T00:45:33.141Z,13.50
2018-07-06T00:48:12.758Z,13.40
2018-07-06T00:50:52.507Z,13.30
2018-07-06T00:56:23.166Z,13.20
2018-07-06T00:59:03.070Z,13.10
2018-07-06T01:01:43.241Z,13.10
2018-07-06T01:06:56.618Z,13.20
2018-07-06T01:12:19.976Z,13.20
2018-07-06T01:15:02.695Z,13.10
2018-07-06T01:17:42.414Z,13.10
2018-07-06T01:20:23.233Z,13.10
2018-07-06T01:25:36.092Z,12.90
2018-07-06T01:28:19.842Z,12.80
2018-07-06T01:31:02.707Z,12.70
2018-07-06T01:33:42.289Z,12.60
2018-07-06T01:36:21.778Z,12.50
2018-07-06T01:39:03.498Z,12.70
2018-07-06T01:41:43.275Z,12.90
2018-07-06T01:44:22.818Z,13.20
2018-07-06T01:47:03.097Z,13.40
2018-07-06T01:49:42.798Z,13.70
2018-07-06T01:52:22.381Z,14.10
2018-07-06T01:55:01.948Z,14.30
2018-07-06T01:57:41.640Z,14.50
2018-07-06T02:00:21.275Z,14.60
2018-07-06T02:03:03.246Z,14.70
2018-07-06T02:05:44.746Z,14.80
2018-07-06T02:08:24.348Z,14.80
2018-07-06T02:11:05.578Z,14.80
2018-07-06T02:13:45.837Z,14.90
2018-07-06T02:16:29.079Z,14.90
2018-07-06T02:19:18.230Z,14.90
2018-07-06T02:21:59.694Z,15.00
2018-07-06T02:24:43.094Z,15.10
2018-07-06T02:27:23.817Z,15.10
2018-07-06T02:30:04.363Z,15.20
2018-07-06T02:32:47.110Z,15.20
2018-07-06T02:35:26.657Z,15.20
2018-07-06T02:38:09.522Z,15.20
2018-07-06T02:40:52.955Z,15.20
2018-07-06T02:43:33.847Z,15.30
2018-07-06T02:46:13.453Z,15.30
2018-07-06T02:48:54.372Z,15.40
2018-07-06T02:51:34.118Z,15.50
2018-07-06T02:54:13.634Z,15.60
2018-07-06T02:56:54.014Z,15.60
2018-07-06T02:59:33.651Z,15.80
2018-07-06T03:02:17.397Z,15.90
2018-07-06T03:04:56.829Z,16.10
2018-07-06T03:07:39.973Z,16.10
2018-07-06T03:10:23.450Z,16.20
2018-07-06T03:13:03.078Z,16.20
2018-07-06T03:15:43.153Z,16.30
2018-07-06T03:18:26.190Z,16.40
2018-07-06T03:23:58.596Z,16.50
2018-07-06T03:26:38.158Z,16.50
2018-07-06T03:29:19.329Z,16.50
2018-07-06T03:32:02.770Z,16.50
2018-07-06T03:37:20.458Z,16.60
2018-07-06T03:40:00.020Z,16.60
2018-07-06T03:42:43.842Z,16.70
2018-07-06T03:45:23.638Z,16.70
2018-07-06T03:48:03.159Z,16.70
2018-07-06T03:50:42.965Z,16.70
2018-07-06T03:53:22.357Z,16.70
2018-07-06T03:56:02.644Z,16.70
2018-07-06T03:58:42.177Z,16.70
2018-07-06T04:01:21.924Z,16.80
2018-07-06T04:04:03.333Z,16.80
2018-07-06T04:06:43.650Z,16.70
2018-07-06T04:09:23.967Z,16.70
2018-07-06T04:12:03.567Z,16.70
2018-07-06T04:20:05.162Z,16.80
2018-07-06T04:22:44.836Z,16.80
2018-07-06T04:25:25.614Z,16.80
2018-07-06T04:28:05.026Z,16.80
2018-07-06T04:30:44.987Z,16.80
2018-07-06T04:33:25.293Z,16.90
2018-07-06T04:36:05.231Z,17.00
2018-07-06T04:38:47.123Z,17.00
2018-07-06T04:41:27.329Z,17.00
2018-07-06T04:44:10.457Z,17.10
2018-07-06T04:46:50.194Z,17.20
2018-07-06T04:52:03.363Z,17.30
2018-07-06T04:54:43.044Z,17.40
2018-07-06T04:57:22.745Z,17.40
2018-07-06T05:00:02.334Z,17.40
2018-07-06T05:02:43.006Z,17.30
2018-07-06T05:05:22.927Z,17.30
2018-07-06T05:08:02.729Z,17.30
2018-07-06T05:10:42.274Z,17.30
2018-07-06T05:15:55.356Z,17.30
2018-07-06T05:18:36.923Z,17.40
2018-07-06T05:21:16.553Z,17.50
2018-07-06T05:23:56.775Z,17.50
2018-07-06T05:26:36.317Z,17.60
2018-07-06T05:29:16.318Z,17.50
2018-07-06T05:31:56.002Z,17.50
2018-07-06T05:34:35.608Z,17.50
2018-07-06T05:37:19.101Z,17.50
2018-07-06T05:39:59.691Z,17.40
2018-07-06T05:42:43.346Z,17.40
2018-07-06T05:45:23.089Z,17.50
2018-07-06T05:48:03.522Z,17.60
2018-07-06T05:50:43.310Z,17.70
2018-07-06T05:53:23.139Z,17.70
2018-07-06T05:56:02.831Z,17.60
2018-07-06T05:58:43.785Z,17.60
2018-07-06T06:01:23.363Z,17.70
2018-07-06T06:04:03.909Z,17.80
2018-07-06T06:06:43.686Z,17.80
2018-07-06T06:09:10.879Z,17.90
2018-07-06T06:11:39.559Z,18.00
2018-07-06T06:14:07.640Z,18.10
2018-07-06T06:16:36.077Z,18.20
2018-07-06T06:19:07.518Z,18.40
2018-07-06T06:21:36.131Z,18.50
2018-07-06T06:24:09.790Z,18.60
2018-07-06T06:26:38.746Z,18.70
2018-07-06T06:29:07.768Z,18.70
2018-07-06T06:31:35.881Z,18.80
2018-07-06T06:34:03.975Z,18.70
2018-07-06T06:36:32.870Z,18.70
2018-07-06T06:39:07.464Z,18.70
2018-07-06T06:41:39.135Z,18.80
2018-07-06T06:44:07.946Z,18.80
2018-07-06T06:46:36.283Z,18.90
2018-07-06T06:49:07.712Z,18.90
2018-07-06T06:51:35.789Z,19.10
2018-07-06T06:54:03.899Z,19.00
2018-07-06T06:56:32.405Z,19.10
2018-07-06T06:59:00.528Z,19.30
2018-07-06T07:01:38.894Z,19.40
2018-07-06T07:04:06.963Z,19.60
2018-07-06T07:06:35.187Z,19.90
2018-07-06T07:09:04.120Z,20.00
2018-07-06T07:11:38.014Z,20.10
2018-07-06T07:14:06.100Z,20.40
2018-07-06T07:16:34.970Z,20.50
2018-07-06T07:19:03.106Z,20.80
2018-07-06T07:21:31.178Z,21.10
2018-07-06T07:24:07.654Z,21.20
2018-07-06T07:26:35.759Z,21.30
2018-07-06T07:29:07.840Z,21.30
2018-07-06T07:31:38.249Z,21.40
2018-07-06T07:34:06.534Z,20.90
2018-07-06T07:36:34.622Z,20.60
2018-07-06T07:39:02.909Z,20.50
2018-07-06T07:41:30.817Z,20.50
2018-07-06T07:43:58.862Z,20.30
2018-07-06T07:46:27.004Z,20.60
2018-07-06T07:48:55.042Z,20.90
2018-07-06T07:52:05.044Z,21.10
2018-07-06T07:54:40.950Z,21.00
2018-07-06T07:57:08.978Z,20.80
2018-07-06T07:59:37.933Z,20.60
2018-07-06T08:02:18.638Z,20.60
2018-07-06T08:04:47.226Z,20.60
2018-07-06T08:07:15.321Z,20.70
2018-07-06T08:09:49.986Z,20.70
2018-07-06T08:12:18.058Z,20.80
2018-07-06T08:14:46.395Z,21.20
2018-07-06T08:17:14.483Z,21.80
2018-07-06T08:19:42.558Z,22.10
2018-07-06T08:22:17.287Z,21.80
2018-07-06T08:24:45.929Z,21.60
2018-07-06T08:27:14.014Z,21.70
2018-07-06T08:29:42.254Z,21.80
2018-07-06T08:32:18.230Z,21.50
2018-07-06T08:34:57.878Z,21.10
2018-07-06T08:37:40.669Z,20.90
2018-07-06T08:40:18.982Z,21.20
2018-07-06T08:42:49.239Z,21.30
2018-07-06T08:45:18.422Z,21.20
2018-07-06T08:47:47.621Z,20.80
2018-07-06T08:50:15.707Z,20.80
2018-07-06T08:52:45.064Z,20.80
2018-07-06T08:55:19.211Z,20.60
2018-07-06T08:57:49.083Z,20.60
2018-07-06T09:00:18.710Z,20.50
2018-07-06T09:02:46.830Z,20.50
2018-07-06T09:05:15.257Z,20.40
2018-07-06T09:07:43.347Z,20.40
2018-07-06T09:10:11.500Z,20.50
2018-07-06T09:12:47.518Z,20.70
2018-07-06T09:15:15.556Z,20.80
2018-07-06T09:17:43.689Z,21.10
2018-07-06T09:20:18.145Z,21.30
2018-07-06T09:22:49.346Z,21.50
2018-07-06T09:25:18.386Z,21.60
2018-07-06T09:27:46.461Z,21.60
2018-07-06T09:30:14.870Z,21.60
2018-07-06T09:32:48.418Z,21.80
2018-07-06T09:35:17.765Z,21.70
2018-07-06T09:37:45.836Z,21.70
2018-07-06T09:40:13.909Z,21.50
2018-07-06T09:42:47.977Z,21.40
2018-07-06T09:45:19.190Z,21.60
2018-07-06T09:47:47.231Z,21.70
2018-07-06T09:50:15.295Z,21.60
2018-07-06T09:55:11.244Z,21.50
2018-07-06T09:57:47.553Z,21.10
2018-07-06T10:00:20.968Z,21.00
2018-07-06T10:02:57.744Z,20.90
2018-07-06T10:05:28.929Z,21.30
2018-07-06T10:07:57.024Z,21.40
2018-07-06T10:10:28.890Z,21.50
2018-07-06T10:12:57.773Z,21.40
2018-07-06T10:15:25.868Z,21.00
2018-07-06T10:17:53.949Z,20.70
2018-07-06T10:20:22.015Z,20.60
2018-07-06T10:22:50.077Z,20.90
2018-07-06T10:25:18.130Z,21.50
2018-07-06T10:27:55.233Z,22.60
2018-07-06T10:30:30.642Z,22.50
2018-07-06T10:33:09.288Z,22.00
2018-07-06T10:35:37.345Z,21.70
2018-07-06T10:38:08.895Z,21.70
2018-07-06T10:40:36.948Z,21.50
2018-07-06T10:43:05.039Z,21.10
2018-07-06T10:45:33.100Z,21.00
2018-07-06T10:48:01.174Z,20.80
2018-07-06T10:50:37.303Z,21.00
2018-07-06T10:53:05.407Z,21.10
2018-07-06T10:55:33.499Z,21.60
2018-07-06T10:58:07.866Z,21.80
2018-07-06T11:00:35.922Z,22.20
2018-07-06T11:03:04.001Z,22.80
2018-07-06T11:05:38.327Z,23.10
2018-07-06T11:08:06.443Z,22.70
2018-07-06T11:10:34.573Z,22.30
2018-07-06T11:13:02.716Z,21.80
2018-07-06T11:15:37.219Z,21.80
2018-07-06T11:18:08.583Z,21.90
2018-07-06T11:20:38.593Z,22.10
2018-07-06T11:23:08.080Z,22.20
2018-07-06T11:25:39.245Z,22.30
2018-07-06T11:28:07.326Z,22.00
2018-07-06T11:30:35.495Z,22.10
2018-07-06T11:33:03.647Z,22.50
2018-07-06T11:35:31.769Z,22.60
2018-07-06T11:37:59.855Z,22.70
2018-07-06T11:40:39.764Z,22.90
2018-07-06T11:43:12.816Z,22.80
2018-07-06T11:45:47.049Z,23.10
2018-07-06T11:48:18.473Z,23.20
2018-07-06T11:50:47.134Z,22.70
2018-07-06T11:53:15.216Z,22.60
2018-07-06T11:55:43.337Z,23.00
2018-07-06T11:58:11.783Z,23.70
2018-07-06T12:00:39.894Z,24.20
2018-07-06T12:03:08.360Z,23.70
2018-07-06T12:08:05.880Z,24.30
2018-07-06T12:10:34.024Z,25.30
2018-07-06T12:13:02.095Z,25.60
2018-07-06T12:15:30.935Z,25.90
2018-07-06T12:18:07.187Z,25.90
2018-07-06T12:20:35.243Z,26.20
2018-07-06T12:23:09.770Z,26.70
2018-07-06T12:25:47.887Z,27.30
2018-07-06T12:28:19.630Z,27.00
2018-07-06T12:30:47.708Z,27.50
2018-07-06T12:33:15.832Z,27.30
2018-07-06T12:35:49.402Z,27.00
2018-07-06T12:38:18.760Z,28.30
2018-07-06T12:40:46.859Z,29.20
2018-07-06T12:43:14.998Z,28.10
2018-07-06T12:45:43.061Z,28.10
2018-07-06T12:48:17.197Z,28.60
2018-07-06T12:50:45.354Z,29.10
2018-07-06T12:53:13.689Z,29.30
2018-07-06T12:55:41.848Z,27.40
2018-07-06T12:58:17.554Z,27.40
2018-07-06T13:00:48.542Z,28.90
2018-07-06T13:03:18.431Z,31.20
2018-07-06T13:05:48.110Z,32.10
2018-07-06T13:08:16.283Z,32.60
2018-07-06T13:10:49.970Z,32.00
2018-07-06T13:13:18.094Z,31.80
2018-07-06T13:15:46.231Z,31.20
2018-07-06T13:18:17.858Z,32.60
2018-07-06T13:20:46.097Z,31.80
2018-07-06T13:23:17.753Z,29.80
2018-07-06T13:25:45.915Z,29.70
2018-07-06T13:28:14.005Z,29.10
2018-07-06T13:30:42.133Z,29.00
2018-07-06T13:35:44.769Z,27.70
2018-07-06T13:38:12.915Z,27.50
2018-07-06T13:40:47.881Z,27.60
2018-07-06T13:43:16.131Z,27.90
2018-07-06T13:45:44.593Z,29.60
2018-07-06T13:48:18.251Z,30.00
2018-07-06T13:50:49.608Z,29.30
2018-07-06T13:53:27.769Z,29.60
2018-07-06T13:55:55.965Z,29.70
2018-07-06T13:58:24.122Z,29.50
2018-07-06T14:00:56.588Z,31.60
2018-07-06T14:03:28.258Z,34.20
2018-07-06T14:05:56.378Z,33.80
2018-07-06T14:08:27.950Z,31.60
2018-07-06T14:10:56.075Z,30.40
2018-07-06T14:13:30.293Z,29.30
2018-07-06T14:15:58.470Z,27.90
2018-07-06T14:18:26.598Z,27.00
2018-07-06T14:20:58.158Z,27.10
2018-07-06T14:23:26.537Z,28.10
2018-07-06T14:25:54.702Z,29.90
2018-07-06T14:28:23.102Z,29.60
2018-07-06T14:30:57.623Z,29.10
2018-07-06T14:33:25.757Z,30.30
2018-07-06T14:35:57.770Z,29.10
2018-07-06T14:38:25.829Z,27.40
2018-07-06T14:40:53.931Z,26.50
2018-07-06T14:43:22.068Z,26.40
2018-07-06T14:45:58.710Z,27.10
2018-07-06T14:48:26.819Z,27.70
2018-07-06T14:50:55.012Z,29.90
2018-07-06T14:53:29.077Z,31.80
2018-07-06T14:55:57.153Z,33.40
2018-07-06T14:58:25.260Z,34.00
2018-07-06T15:00:59.575Z,33.30
2018-07-06T15:03:27.804Z,32.80
2018-07-06T15:05:55.939Z,30.40
2018-07-06T15:08:29.866Z,29.80
2018-07-06T15:10:57.978Z,31.30
2018-07-06T15:13:26.150Z,33.00
2018-07-06T15:15:59.925Z,33.20
2018-07-06T15:18:37.853Z,31.40
2018-07-06T15:21:09.199Z,29.40
2018-07-06T15:23:37.310Z,28.30
2018-07-06T15:26:05.536Z,29.50
2018-07-06T15:28:39.961Z,30.70
2018-07-06T15:31:08.071Z,30.40
2018-07-06T15:33:39.969Z,30.60
2018-07-06T15:36:08.088Z,28.70
2018-07-06T15:38:38.177Z,27.50
2018-07-06T15:41:06.887Z,28.20
2018-07-06T15:43:38.566Z,29.30
2018-07-06T15:46:06.661Z,29.40
2018-07-06T15:48:38.326Z,29.10
2018-07-06T15:51:06.530Z,28.00
2018-07-06T15:53:38.389Z,27.00
2018-07-06T15:56:06.515Z,26.10
2018-07-06T15:58:34.632Z,25.60
2018-07-06T16:01:02.824Z,25.60
2018-07-06T16:03:30.957Z,25.60
2018-07-06T16:08:27.814Z,26.70
2018-07-06T16:10:55.998Z,27.00
2018-07-06T16:13:30.153Z,26.60
2018-07-06T16:16:08.245Z,26.30
2018-07-06T16:18:40.393Z,26.60
2018-07-06T16:21:08.479Z,27.30
2018-07-06T16:23:38.440Z,27.40
2018-07-06T16:26:06.781Z,27.00
2018-07-06T16:28:34.993Z,27.50
2018-07-06T16:31:03.178Z,27.90
2018-07-06T16:33:31.336Z,27.10
2018-07-06T16:35:59.480Z,26.10
2018-07-06T16:38:27.589Z,25.40
2018-07-06T16:40:55.673Z,24.90
2018-07-06T16:43:23.731Z,24.70
2018-07-06T16:45:58.259Z,24.40
2018-07-06T16:48:29.569Z,24.20
2018-07-06T16:50:57.638Z,24.20
2018-07-06T16:53:29.532Z,24.20
2018-07-06T16:55:58.237Z,24.10
2018-07-06T16:58:29.354Z,24.00
2018-07-06T17:00:58.150Z,23.90
2018-07-06T17:03:26.217Z,23.80
2018-07-06T17:05:54.323Z,23.80
2018-07-06T17:10:50.973Z,23.70
2018-07-06T17:13:19.083Z,23.70
2018-07-06T17:15:48.032Z,23.60
2018-07-06T17:18:17.824Z,23.50
2018-07-06T17:20:46.432Z,23.50
2018-07-06T17:23:20.077Z,23.50
2018-07-06T17:25:48.202Z,23.50
2018-07-06T17:28:16.898Z,23.50
2018-07-06T17:30:44.976Z,23.50
2018-07-06T17:35:41.094Z,23.40
2018-07-06T17:38:09.793Z,23.30
2018-07-06T17:40:37.967Z,23.20
2018-07-06T17:43:09.068Z,23.10
2018-07-06T17:45:37.157Z,23.10
2018-07-06T17:48:05.686Z,23.10
2018-07-06T17:50:33.774Z,23.10
2018-07-06T17:53:01.843Z,23.00
2018-07-06T17:55:29.932Z,23.20
2018-07-06T17:57:58.056Z,23.50
2018-07-06T18:00:29.341Z,24.00
2018-07-06T18:02:57.461Z,24.20
2018-07-06T18:05:29.488Z,24.30
2018-07-06T18:07:58.052Z,24.30
2018-07-06T18:10:26.173Z,24.40
2018-07-06T18:12:54.438Z,24.20
2018-07-06T18:15:22.545Z,23.90
2018-07-06T18:17:50.627Z,23.80
2018-07-06T18:20:28.635Z,23.80
2018-07-06T18:22:56.818Z,23.70
2018-07-06T18:25:24.861Z,23.70
2018-07-06T18:27:52.948Z,23.60
2018-07-06T18:30:28.020Z,23.50
2018-07-06T18:32:59.320Z,23.30
2018-07-06T18:35:27.404Z,23.20
2018-07-06T18:37:59.193Z,23.00
2018-07-06T18:40:28.158Z,22.80
2018-07-06T18:42:58.241Z,22.50
2018-07-06T18:45:28.070Z,22.30
2018-07-06T18:47:56.137Z,22.10
2018-07-06T18:50:30.159Z,21.70
2018-07-06T18:53:08.431Z,21.20
2018-07-06T18:55:36.494Z,20.80
2018-07-06T18:58:04.815Z,20.60
2018-07-06T19:00:32.998Z,20.30
2018-07-06T19:03:07.883Z,20.10
2018-07-06T19:05:35.965Z,19.90
2018-07-06T19:08:08.001Z,19.80
2018-07-06T19:10:36.057Z,19.60
2018-07-06T19:13:08.751Z,19.40
2018-07-06T19:15:38.830Z,19.20
2018-07-06T19:18:08.478Z,19.20
2018-07-06T19:20:36.848Z,19.00
2018-07-06T19:23:04.925Z,18.80
2018-07-06T19:28:00.908Z,18.80
2018-07-06T19:30:28.993Z,18.70
2018-07-06T19:32:57.171Z,18.70
2018-07-06T19:35:25.232Z,18.60
2018-07-06T19:37:53.318Z,18.40
2018-07-06T19:40:28.180Z,18.20
2018-07-06T19:42:59.676Z,18.20
2018-07-06T19:45:28.382Z,18.00
2018-07-06T19:47:56.455Z,17.90
2018-07-06T19:50:24.622Z,17.80
2018-07-06T19:52:52.728Z,17.80
2018-07-06T19:55:20.859Z,17.80
2018-07-06T19:57:48.907Z,17.80
2018-07-06T20:00:16.975Z,17.70
2018-07-06T20:02:48.377Z,17.60
2018-07-06T20:05:16.488Z,17.30
2018-07-06T20:07:48.239Z,17.10
2018-07-06T20:12:44.142Z,17.00
2018-07-06T20:15:12.241Z,17.10
2018-07-06T20:17:48.078Z,17.20
2018-07-06T20:20:16.114Z,17.10
2018-07-06T20:22:47.805Z,17.10
2018-07-06T20:25:15.841Z,17.00
2018-07-06T20:27:47.755Z,17.10
2018-07-06T20:30:18.822Z,16.90
2018-07-06T20:32:46.885Z,16.80
2018-07-06T20:35:18.732Z,16.80
2018-07-06T20:40:18.636Z,16.60
2018-07-06T20:42:46.990Z,16.50
2018-07-06T20:47:55.128Z,16.50
2018-07-06T20:50:29.495Z,16.30
2018-07-06T20:52:57.520Z,16.30
2018-07-06T20:55:25.594Z,16.30
2018-07-06T20:57:53.646Z,16.20
2018-07-06T21:00:21.685Z,16.20
2018-07-06T21:02:57.837Z,16.10
2018-07-06T21:05:29.696Z,16.10
2018-07-06T21:07:57.793Z,16.10
2018-07-06T21:10:27.815Z,16.10
2018-07-06T21:12:55.873Z,16.10
2018-07-06T21:15:29.937Z,16.00
2018-07-06T21:18:07.707Z,16.00
2018-07-06T21:20:39.105Z,16.00
2018-07-06T21:23:07.154Z,15.90
2018-07-06T21:25:35.215Z,15.90
2018-07-06T21:28:08.727Z,16.00
2018-07-06T21:30:36.810Z,16.10
2018-07-06T21:33:04.850Z,16.10
2018-07-06T21:35:39.383Z,16.00
2018-07-06T21:38:07.540Z,15.80
2018-07-06T21:40:38.926Z,15.70
2018-07-06T21:43:08.449Z,15.60
2018-07-06T21:45:39.708Z,15.40
2018-07-06T21:48:07.913Z,15.30
2018-07-06T21:50:36.001Z,15.20
2018-07-06T21:53:04.260Z,15.10
2018-07-06T21:55:33.503Z,15.00
2018-07-06T21:58:08.463Z,15.00
2018-07-06T22:00:38.279Z,14.90
2018-07-06T22:03:07.269Z,14.80
2018-07-06T22:08:03.596Z,14.80
2018-07-06T22:10:32.086Z,14.80
2018-07-06T22:13:08.516Z,14.80
2018-07-06T22:15:44.950Z,14.80
2018-07-06T22:18:19.764Z,14.80
2018-07-06T22:20:48.751Z,14.70
2018-07-06T22:23:17.679Z,14.60
2018-07-06T22:25:45.729Z,14.50
2018-07-06T22:28:19.966Z,14.40
2018-07-06T22:30:48.021Z,14.40
2018-07-06T22:33:19.707Z,14.40
2018-07-06T22:35:48.038Z,14.30
2018-07-06T22:38:16.091Z,14.20
2018-07-06T22:40:44.130Z,14.10
2018-07-06T22:43:18.866Z,14.00
2018-07-06T22:45:49.944Z,13.90
2018-07-06T22:48:18.303Z,13.80
2018-07-06T22:50:46.914Z,13.70
2018-07-06T22:53:15.135Z,13.70
2018-07-06T22:55:43.469Z,13.70
2018-07-06T22:58:11.510Z,13.70
2018-07-06T23:00:39.575Z,13.70
2018-07-06T23:03:07.619Z,13.60
2018-07-06T23:05:35.679Z,13.50
2018-07-06T23:08:03.701Z,13.40
2018-07-06T23:10:31.720Z,13.40
2018-07-06T23:13:08.037Z,13.30
2018-07-06T23:15:39.531Z,13.30
2018-07-06T23:18:09.278Z,13.30
2018-07-06T23:20:37.343Z,13.20
2018-07-06T23:23:12.532Z,13.20
2018-07-06T23:25:41.750Z,13.20
2018-07-06T23:28:19.332Z,13.10
2018-07-06T23:30:47.371Z,13.00
2018-07-06T23:33:15.680Z,13.00
2018-07-06T23:35:49.612Z,12.90
2018-07-06T23:38:18.095Z,12.80
2018-07-06T23:40:46.072Z,12.90
2018-07-06T23:43:20.270Z,12.80
2018-07-06T23:45:48.425Z,12.70
2018-07-06T23:48:20.293Z,12.50
2018-07-06T23:50:48.349Z,12.30
2018-07-06T23:53:16.917Z,12.20
2018-07-06T23:55:44.937Z,12.10
2018-07-06T23:58:18.956Z,12.00
